Time;durP1;ratioP1;P1;durP2;ratioP2;P2;SDS_P1;SDS_P2;PMS_P1;PMS_P2;Temp;Humidity;BMP_temperature;BMP_pressure;BME280_temperature;BME280_humidity;BME280_pressure;Samples;Min_cycle;Max_cycle;Signal;HPM_P1;HPM_P2
2023/01/24 00:00:05;;;;;;;;;42.25;32.50;;;;;4.39;63.74;102788.66;5056838;28;45349;-57
2023/01/24 00:02:30;;;;;;;;;41.75;30.50;;;;;4.40;63.41;102782.50;5057658;28;45473;-60
2023/01/24 00:04:56;;;;;;;;;32.50;25.25;;;;;4.43;63.46;102782.56;5057774;28;45842;-63
2023/01/24 00:07:21;;;;;;;;;33.25;31.75;;;;;4.46;63.13;102784.31;5067700;27;47232;-61
2023/01/24 00:09:47;;;;;;;;;38.75;32.75;;;;;4.41;63.82;102786.91;5073501;28;45227;-62
2023/01/24 00:12:12;;;;;;;;;44.25;36.50;;;;;4.40;64.50;102790.41;5057436;28;45225;-62
2023/01/24 00:14:37;;;;;;;;;36.25;31.25;;;;;4.42;63.85;102793.06;5057644;28;45731;-60
2023/01/24 00:17:03;;;;;;;;;42.50;35.50;;;;;4.47;64.17;102788.72;5057894;28;46015;-61
2023/01/24 00:19:28;;;;;;;;;45.00;35.00;;;;;4.48;64.27;102793.09;5058207;28;45339;-62
2023/01/24 00:21:54;;;;;;;;;37.50;31.75;;;;;4.42;64.04;102782.53;5066577;28;45357;-61
2023/01/24 00:24:19;;;;;;;;;29.75;26.00;;;;;4.32;64.06;102783.38;5061353;27;45632;-62
2023/01/24 00:26:44;;;;;;;;;42.00;37.25;;;;;4.31;64.35;102787.75;5072201;28;46103;-61
2023/01/24 00:29:10;;;;;;;;;33.00;30.50;;;;;4.28;64.98;102786.84;5077973;27;45329;-60
2023/01/24 00:31:35;;;;;;;;;30.50;26.00;;;;;4.33;64.67;102790.41;5059843;27;45478;-62
2023/01/24 00:34:00;;;;;;;;;47.25;32.25;;;;;4.21;64.03;102758.72;5058112;28;45504;-59
2023/01/24 00:36:26;;;;;;;;;47.25;29.75;;;;;4.28;64.24;102771.03;5055945;28;45350;-57
2023/01/24 00:38:54;;;;;;;;;35.00;31.00;;;;;4.22;64.31;102763.13;5070228;28;45441;-58
2023/01/24 00:41:20;;;;;;;;;54.75;33.00;;;;;4.40;64.56;102779.00;5062107;27;45345;-56
2023/01/24 00:43:45;;;;;;;;;43.50;31.50;;;;;4.41;65.11;102778.13;5064933;28;45405;-57
2023/01/24 00:46:11;;;;;;;;;39.50;33.75;;;;;4.36;64.31;102769.34;5062983;27;45958;-55
2023/01/24 00:48:37;;;;;;;;;43.75;34.00;;;;;4.39;64.10;102774.59;5064563;28;45240;-55
2023/01/24 00:51:02;;;;;;;;;42.50;30.50;;;;;4.41;64.68;102772.84;5071072;27;45337;-59
2023/01/24 00:53:28;;;;;;;;;38.50;32.00;;;;;4.36;64.13;102769.34;5055779;28;45439;-54
2023/01/24 00:55:54;;;;;;;;;42.50;39.50;;;;;4.27;64.31;102780.69;5055219;28;46006;-55
2023/01/24 00:58:20;;;;;;;;;40.25;33.00;;;;;4.21;65.00;102769.25;5052224;28;45457;-56
2023/01/24 01:00:46;;;;;;;;;40.50;30.75;;;;;4.25;65.55;102786.84;5074592;27;45434;-60
2023/01/24 01:03:17;;;;;;;;;46.25;31.00;;;;;4.31;65.03;102786.88;5057475;28;45341;-58
2023/01/24 01:05:43;;;;;;;;;35.50;30.00;;;;;4.29;64.50;102781.56;5081407;27;45444;-59
2023/01/24 01:08:09;;;;;;;;;43.75;35.00;;;;;4.18;65.27;102777.16;5064170;28;45465;-56
2023/01/24 01:10:35;;;;;;;;;44.25;30.00;;;;;4.11;64.94;102779.75;5060015;28;45526;-55
2023/01/24 01:13:00;;;;;;;;;40.25;38.25;;;;;4.10;65.64;102767.44;5085262;27;45691;-56
2023/01/24 01:15:25;;;;;;;;;45.25;30.00;;;;;4.16;65.89;102782.38;5050078;28;45602;-59
2023/01/24 01:17:51;;;;;;;;;43.50;31.75;;;;;4.17;65.21;102783.28;5046874;28;45511;-61
2023/01/24 01:20:16;;;;;;;;;45.50;36.00;;;;;4.20;65.14;102778.03;5050875;28;45587;-61
2023/01/24 01:22:42;;;;;;;;;36.25;30.25;;;;;4.28;65.29;102789.47;5056967;28;45425;-57
2023/01/24 01:25:08;;;;;;;;;37.50;32.75;;;;;4.33;65.38;102793.03;5055679;28;45445;-59
2023/01/24 01:27:33;;;;;;;;;41.50;35.75;;;;;4.25;64.95;102792.09;5056121;28;45551;-54
2023/01/24 01:29:58;;;;;;;;;41.50;36.50;;;;;4.21;65.17;102801.75;5056292;28;45459;-59
2023/01/24 01:32:24;;;;;;;;;47.25;36.75;;;;;4.25;65.06;102792.09;5056622;28;45331;-58
2023/01/24 01:34:49;;;;;;;;;45.75;39.75;;;;;4.30;65.58;102785.13;5055187;28;47583;-58
2023/01/24 01:37:14;;;;;;;;;55.75;36.25;;;;;4.28;65.71;102797.38;5055462;28;45268;-61
2023/01/24 01:39:40;;;;;;;;;52.50;41.25;;;;;4.26;65.88;102793.88;5056203;28;45914;-60
2023/01/24 01:42:05;;;;;;;;;37.00;33.25;;;;;4.17;65.82;102793.81;5057157;28;45208;-61
2023/01/24 01:44:41;;;;;;;;;53.75;41.50;;;;;4.15;66.16;102799.94;5056109;28;45633;-62
2023/01/24 01:47:25;;;;;;;;;39.00;32.75;;;;;4.12;66.46;102797.31;5056513;28;45347;-58
2023/01/24 01:50:21;;;;;;;;;47.25;40.50;;;;;4.10;65.70;102804.31;5053998;28;45289;-60
2023/01/24 01:52:46;;;;;;;;;37.75;29.00;;;;;4.12;65.56;102806.97;5056340;28;45370;-55
2023/01/24 01:55:22;;;;;;;;;43.50;35.75;;;;;4.10;65.82;102803.44;5055931;28;45969;-56
2023/01/24 01:57:50;;;;;;;;;41.75;35.25;;;;;4.07;65.79;102799.03;5056949;28;45464;-58
2023/01/24 02:00:20;;;;;;;;;40.25;32.25;;;;;4.18;65.03;102811.41;5057274;28;45431;-54
2023/01/24 02:02:53;;;;;;;;;48.00;36.75;;;;;4.20;65.72;102801.75;5059673;28;45222;-53
2023/01/24 02:05:23;;;;;;;;;48.25;34.00;;;;;4.07;65.11;102799.03;5054998;28;45457;-57
2023/01/24 02:07:56;;;;;;;;;36.75;31.75;;;;;4.01;65.72;102806.88;5056946;28;45587;-56
2023/01/24 02:10:24;;;;;;;;;44.00;37.00;;;;;3.93;66.02;102799.81;5055764;28;45218;-54
2023/01/24 02:12:53;;;;;;;;;31.75;27.75;;;;;4.07;65.43;102814.84;5056658;28;45459;-57
2023/01/24 02:18:07;;;;;;;;;38.25;36.25;;;;;4.04;64.42;102820.09;5056629;28;45252;-54
2023/01/24 02:20:45;;;;;;;;;32.00;29.50;;;;;4.01;65.19;102816.53;5055613;28;46070;-56
2023/01/24 02:23:29;;;;;;;;;35.75;30.25;;;;;4.06;64.55;102818.34;5053360;28;45628;-55
2023/01/24 02:26:07;;;;;;;;;46.00;38.25;;;;;4.13;64.56;102825.41;5056068;28;45492;-53
2023/01/24 02:28:33;;;;;;;;;59.75;42.25;;;;;4.20;64.14;102814.91;5054552;28;45401;-56
2023/01/24 02:31:00;;;;;;;;;42.00;36.50;;;;;4.18;64.37;102824.56;5037517;28;45427;-54
2023/01/24 02:33:26;;;;;;;;;34.50;26.25;;;;;4.10;64.76;102814.84;5056278;28;45231;-57
2023/01/24 02:36:12;;;;;;;;;40.50;31.25;;;;;4.14;65.04;102821.00;5054784;28;45422;-59
2023/01/24 02:38:40;;;;;;;;;42.50;34.50;;;;;4.00;65.24;102801.63;5054991;28;45250;-60
2023/01/24 02:41:07;;;;;;;;;45.75;40.00;;;;;4.03;65.25;102807.78;5054635;28;45472;-59
2023/01/24 02:43:45;;;;;;;;;46.25;32.75;;;;;4.05;65.03;102808.69;5055957;28;45638;-56
2023/01/24 02:46:14;;;;;;;;;46.25;35.50;;;;;4.02;65.20;102794.59;5054924;28;45536;-58
2023/01/24 02:48:39;;;;;;;;;40.25;40.00;;;;;3.93;64.95;102795.44;5057379;28;45309;-59
2023/01/24 02:53:49;;;;;;;;;39.00;27.75;;;;;3.91;65.44;102797.19;5056292;28;45380;-54
2023/01/24 02:58:58;;;;;;;;;34.00;28.50;;;;;3.95;65.30;102814.75;5056820;28;45367;-61
2023/01/24 03:01:23;;;;;;;;;47.75;37.50;;;;;3.79;65.06;102789.22;5056231;28;45199;-60
2023/01/24 03:03:51;;;;;;;;;28.00;22.50;;;;;3.90;65.16;102811.19;5056725;28;45211;-56
2023/01/24 03:06:17;;;;;;;;;34.50;27.75;;;;;3.93;64.95;102808.59;5055961;28;46319;-60
2023/01/24 03:08:43;;;;;;;;;48.00;35.75;;;;;3.90;65.18;102810.31;5056565;28;45343;-56
2023/01/24 03:11:11;;;;;;;;;40.25;35.75;;;;;3.90;65.09;102805.94;5054904;28;45352;-58
2023/01/24 03:35:33;;;;;;;;;38.75;31.00;;;;;3.97;64.56;102812.13;5053270;28;45425;-60
2023/01/24 03:40:43;;;;;;;;;47.25;37.25;;;;;3.89;64.85;102804.16;5058419;28;45789;-57
2023/01/24 03:43:09;;;;;;;;;54.75;43.75;;;;;3.90;65.04;102800.66;5051881;28;45280;-60
2023/01/24 03:45:36;;;;;;;;;44.00;27.75;;;;;3.85;65.13;102810.28;5050445;28;45513;-62
2023/01/24 03:48:09;;;;;;;;;49.00;34.50;;;;;3.80;65.66;102804.13;5055928;28;45549;-60
2023/01/24 03:53:24;;;;;;;;;46.50;41.25;;;;;3.92;65.17;102804.22;5039515;28;45573;-57
2023/01/24 03:55:54;;;;;;;;;74.50;52.25;;;;;3.97;65.00;102810.38;5056552;28;45607;-60
2023/01/24 03:58:20;;;;;;;;;37.50;31.25;;;;;3.97;65.03;102813.00;5054629;28;46981;-60
2023/01/24 04:00:45;;;;;;;;;46.00;34.00;;;;;3.94;64.97;102802.47;5055805;28;45504;-53
2023/01/24 04:03:11;;;;;;;;;49.75;36.25;;;;;3.85;65.21;102794.50;5056997;28;45521;-58
2023/01/24 04:05:36;;;;;;;;;35.75;33.00;;;;;3.87;65.04;102790.13;5057083;28;45611;-58
2023/01/24 04:08:02;;;;;;;;;43.50;37.75;;;;;3.70;65.37;102783.88;5053181;28;45338;-57
2023/01/24 04:10:28;;;;;;;;;43.25;34.25;;;;;3.78;65.48;102800.59;5056093;28;45409;-55
2023/01/24 04:12:54;;;;;;;;;55.50;38.75;;;;;3.79;65.19;102803.25;5072222;27;45405;-62
2023/01/24 04:15:28;;;;;;;;;45.00;40.75;;;;;3.90;65.55;102805.94;5058497;28;45334;-57
2023/01/24 04:17:56;;;;;;;;;39.50;37.00;;;;;3.92;64.95;102809.47;5056207;28;46371;-57
2023/01/24 04:20:22;;;;;;;;;44.50;35.50;;;;;3.93;64.91;102794.56;5057883;28;45449;-56
2023/01/24 04:22:47;;;;;;;;;47.50;41.50;;;;;4.00;64.54;102798.97;5090630;27;45495;-61
2023/01/24 04:25:13;;;;;;;;;37.25;30.75;;;;;3.98;65.02;102793.72;5056974;28;45435;-58
2023/01/24 04:27:38;;;;;;;;;40.25;33.25;;;;;3.92;64.61;102788.41;5057465;28;46080;-61
2023/01/24 04:30:06;;;;;;;;;53.75;41.50;;;;;3.90;65.50;102790.13;5056250;28;45580;-59
2023/01/24 04:32:31;;;;;;;;;44.50;35.25;;;;;3.92;65.05;102798.06;5057160;28;45219;-61
2023/01/24 04:34:57;;;;;;;;;46.50;38.25;;;;;3.85;65.67;102792.75;5056033;28;45242;-60
2023/01/24 04:37:22;;;;;;;;;50.00;41.75;;;;;3.87;65.45;102798.00;5054548;28;45518;-60
2023/01/24 04:39:48;;;;;;;;;37.50;33.25;;;;;3.89;65.34;102798.91;5056877;28;45337;-60
2023/01/24 04:42:13;;;;;;;;;58.75;44.50;;;;;3.89;65.51;102793.63;5057716;28;45379;-61
2023/01/24 04:44:38;;;;;;;;;52.25;44.00;;;;;3.93;65.85;102795.44;5057607;28;45228;-58
2023/01/24 04:47:04;;;;;;;;;50.25;35.00;;;;;3.86;65.41;102798.88;5055428;28;47008;-60
2023/01/24 04:49:29;;;;;;;;;52.50;40.25;;;;;3.93;64.97;102811.25;5055269;28;45444;-60
2023/01/24 04:51:55;;;;;;;;;45.25;39.25;;;;;3.92;65.24;102804.22;5059221;28;45405;-58
2023/01/24 04:54:20;;;;;;;;;49.25;34.00;;;;;3.94;65.91;102807.72;5055954;28;45542;-57
2023/01/24 04:56:46;;;;;;;;;59.50;44.75;;;;;4.02;65.56;102813.91;5057409;28;46247;-57
2023/01/24 04:59:12;;;;;;;;;57.00;44.50;;;;;4.00;65.24;102809.50;5057024;28;45394;-60
2023/01/24 05:01:39;;;;;;;;;39.00;33.00;;;;;3.96;65.73;102815.63;5073090;28;45505;-53
2023/01/24 05:04:04;;;;;;;;;54.50;38.00;;;;;3.91;65.58;102807.72;5057874;28;45419;-58
2023/01/24 05:06:32;;;;;;;;;46.25;40.50;;;;;3.95;65.60;102816.50;5057861;28;46650;-60
2023/01/24 05:08:58;;;;;;;;;51.00;45.00;;;;;3.93;65.80;102820.88;5059846;28;45438;-56
2023/01/24 05:11:24;;;;;;;;;39.75;35.75;;;;;3.93;65.79;102824.41;5066929;28;45402;-61
2023/01/24 05:13:50;;;;;;;;;51.50;43.25;;;;;3.93;65.57;102832.31;5059948;28;45406;-54
2023/01/24 05:16:16;;;;;;;;;42.25;30.50;;;;;3.93;65.58;102826.16;5054279;28;46200;-56
2023/01/24 05:18:42;;;;;;;;;48.25;42.00;;;;;4.02;65.29;102826.19;5049702;28;45415;-58
2023/01/24 05:21:15;;;;;;;;;49.75;43.50;;;;;4.04;65.58;102825.34;5058273;28;45388;-59
2023/01/24 05:23:40;;;;;;;;;41.50;36.25;;;;;4.03;65.55;102828.84;5072245;27;45384;-58
2023/01/24 05:26:06;;;;;;;;;53.50;39.25;;;;;4.05;65.16;102834.13;5056824;28;46003;-58
2023/01/24 05:28:32;;;;;;;;;45.50;39.00;;;;;4.08;65.51;102827.13;5071994;28;45532;-58
2023/01/24 05:31:04;;;;;;;;;48.50;35.50;;;;;4.02;65.48;102829.72;5053973;28;45498;-58
2023/01/24 05:33:30;;;;;;;;;41.75;34.75;;;;;4.08;65.06;102835.03;5046258;28;45248;-58
2023/01/24 05:36:03;;;;;;;;;48.25;43.75;;;;;3.97;65.87;102828.81;5054946;28;46247;-59
2023/01/24 05:38:29;;;;;;;;;33.00;33.00;;;;;3.90;65.51;102832.25;5052621;28;45377;-56
2023/01/24 05:41:01;;;;;;;;;36.00;27.50;;;;;3.89;65.33;102830.50;5056092;28;45424;-56
2023/01/24 05:43:27;;;;;;;;;52.00;44.00;;;;;3.91;65.44;102834.03;5056124;28;44859;-57
2023/01/24 05:45:58;;;;;;;;;58.00;45.00;;;;;3.93;65.82;102836.69;5035491;28;45454;-56
2023/01/24 05:48:23;;;;;;;;;35.50;30.75;;;;;3.88;65.98;102834.00;5051669;28;45591;-55
2023/01/24 05:50:49;;;;;;;;;56.50;39.50;;;;;3.74;65.86;102809.31;5038023;28;46028;-56
2023/01/24 05:53:14;;;;;;;;;47.25;38.50;;;;;3.87;65.74;102847.16;5049174;28;45600;-57
2023/01/24 05:55:40;;;;;;;;;44.50;36.00;;;;;3.80;66.25;102822.56;5054480;28;45524;-56
2023/01/24 05:58:05;;;;;;;;;49.00;35.25;;;;;3.85;65.59;102841.88;5054163;28;45452;-57
2023/01/24 06:00:30;;;;;;;;;64.25;44.00;;;;;3.70;66.38;102844.41;5055050;28;45423;-60
2023/01/24 06:03:02;;;;;;;;;55.00;37.00;;;;;3.72;66.56;102851.44;5061676;28;45530;-55
2023/01/24 06:05:27;;;;;;;;;54.00;38.25;;;;;3.75;66.30;102834.78;5052840;28;45417;-56
2023/01/24 06:07:53;;;;;;;;;49.50;43.25;;;;;3.82;66.27;102839.22;5055816;28;45437;-56
2023/01/24 06:10:19;;;;;;;;;55.25;39.50;;;;;3.86;65.92;102848.91;5068849;28;45499;-58
2023/01/24 06:12:44;;;;;;;;;52.50;41.75;;;;;3.76;66.53;102841.78;5056274;28;45476;-56
2023/01/24 06:15:10;;;;;;;;;45.50;35.50;;;;;3.73;66.67;102845.28;5057396;28;46163;-58
2023/01/24 06:17:35;;;;;;;;;58.75;46.75;;;;;3.78;66.62;102842.72;5055543;28;45354;-57
2023/01/24 06:20:01;;;;;;;;;56.50;43.00;;;;;3.84;66.34;102848.91;5059292;28;45406;-55
2023/01/24 06:22:56;;;;;;;;;44.25;37.50;;;;;3.84;66.21;102848.00;5057214;28;45320;-56
2023/01/24 06:25:24;;;;;;;;;41.50;38.75;;;;;3.89;66.11;102851.56;5054769;28;45457;-57
2023/01/24 06:27:50;;;;;;;;;45.25;41.00;;;;;3.89;66.30;102859.44;5053386;28;45815;-58
2023/01/24 06:30:18;;;;;;;;;54.75;45.25;;;;;3.92;65.60;102851.59;5056578;28;45472;-58
2023/01/24 06:32:55;;;;;;;;;47.25;39.25;;;;;3.99;65.87;102861.28;5055297;28;45358;-57
2023/01/24 06:35:34;;;;;;;;;44.50;38.00;;;;;3.96;66.12;102857.75;5061986;27;46020;-58
2023/01/24 06:37:59;;;;;;;;;25.25;12.50;;;;;3.98;66.08;102859.53;5051382;28;45442;-56
2023/01/24 06:40:25;;;;;;;;;59.25;44.25;;;;;3.88;66.29;102844.53;5056487;28;45373;-55
2023/01/24 06:42:52;;;;;;;;;48.00;33.75;;;;;3.89;66.57;102858.56;5050977;28;45885;-55
2023/01/24 06:45:19;;;;;;;;;49.75;41.00;;;;;3.96;66.25;102858.63;5035821;28;45353;-60
2023/01/24 06:47:44;;;;;;;;;42.50;37.25;;;;;4.00;65.73;102863.03;5050342;28;45352;-52
2023/01/24 06:50:17;;;;;;;;;57.50;39.75;;;;;3.97;65.85;102855.13;5053345;28;45575;-54
2023/01/24 06:52:48;;;;;;;;;53.75;44.50;;;;;3.98;66.21;102867.44;5058587;28;45482;-60
2023/01/24 06:55:14;;;;;;;;;50.75;40.25;;;;;4.00;66.16;102868.31;5055903;28;45550;-65
2023/01/24 06:57:40;;;;;;;;;55.25;38.75;;;;;4.02;66.13;102863.06;5058034;28;45527;-59
2023/01/24 07:00:06;;;;;;;;;54.00;39.50;;;;;4.04;66.40;102872.75;5058272;28;45563;-60
2023/01/24 07:02:35;;;;;;;;;50.00;39.00;;;;;4.04;66.24;102862.22;5056802;28;45522;-58
2023/01/24 07:05:00;;;;;;;;;49.75;42.75;;;;;4.13;65.46;102872.78;5057942;28;45437;-56
2023/01/24 07:07:26;;;;;;;;;68.25;49.50;;;;;4.03;66.00;102876.22;5057626;28;45319;-62
2023/01/24 07:09:51;;;;;;;;;59.50;48.00;;;;;3.97;66.60;102876.19;5055243;28;45527;-55
2023/01/24 07:12:16;;;;;;;;;39.00;32.50;;;;;4.02;66.40;102877.09;5058182;28;45466;-63
2023/01/24 07:14:43;;;;;;;;;54.75;44.00;;;;;4.06;66.13;102876.28;5058255;28;45286;-60
2023/01/24 07:17:08;;;;;;;;;66.00;45.75;;;;;4.08;66.09;102878.91;5058840;28;45452;-57
2023/01/24 07:19:34;;;;;;;;;48.50;39.75;;;;;4.10;65.86;102878.06;5058014;28;45381;-58
2023/01/24 07:22:00;;;;;;;;;41.50;36.50;;;;;4.05;65.84;102871.88;5057704;28;45300;-61
2023/01/24 07:24:29;;;;;;;;;42.75;35.50;;;;;4.17;66.00;102885.97;5057609;28;47475;-60
2023/01/24 07:26:55;;;;;;;;;55.50;43.75;;;;;4.13;66.22;102880.69;5058672;28;45433;-68
2023/01/24 07:29:21;;;;;;;;;52.75;42.75;;;;;4.17;66.23;102880.72;5056488;28;45743;-63
2023/01/24 07:31:48;;;;;;;;;56.75;45.25;;;;;4.18;66.20;102882.50;5059398;28;45361;-61
2023/01/24 07:34:15;;;;;;;;;52.00;45.25;;;;;4.15;66.05;102894.75;5057574;28;45539;-64
2023/01/24 07:36:42;;;;;;;;;59.25;44.50;;;;;4.21;66.17;102899.19;5055497;28;45419;-58
2023/01/24 07:39:07;;;;;;;;;52.25;42.00;;;;;4.16;66.41;102898.25;5055535;28;45423;-55
2023/01/24 07:41:32;;;;;;;;;54.00;46.00;;;;;4.16;66.06;102898.25;5053864;28;45562;-54
2023/01/24 07:43:58;;;;;;;;;53.50;47.00;;;;;4.21;65.52;102900.94;5050556;28;45406;-56
2023/01/24 07:46:24;;;;;;;;;51.00;44.75;;;;;4.21;65.69;102907.09;5057914;28;45398;-62
2023/01/24 07:48:52;;;;;;;;;56.25;39.00;;;;;4.14;66.53;102903.53;5058900;28;50655;-62
2023/01/24 07:51:17;;;;;;;;;56.75;43.00;;;;;4.22;65.72;102918.53;5059254;28;45488;-59
2023/01/24 07:53:43;;;;;;;;;57.75;43.25;;;;;4.22;65.89;102913.25;5054040;28;46397;-55
2023/01/24 07:56:09;;;;;;;;;74.00;55.00;;;;;4.25;65.63;102913.25;5049928;28;45449;-61
2023/01/24 07:58:34;;;;;;;;;52.75;44.00;;;;;4.02;65.96;102884.13;5048549;28;45592;-63
2023/01/24 08:00:59;;;;;;;;;48.25;40.75;;;;;4.17;66.43;102929.03;5054555;28;45426;-66
2023/01/24 08:03:25;;;;;;;;;57.25;46.00;;;;;4.21;65.84;102929.94;5056054;28;47323;-60
2023/01/24 08:05:50;;;;;;;;;52.00;43.25;;;;;4.19;65.86;102923.78;5052889;28;45535;-63
2023/01/24 08:08:16;;;;;;;;;52.75;44.00;;;;;4.19;65.65;102921.13;5055260;28;45506;-62
2023/01/24 08:10:41;;;;;;;;;37.75;32.75;;;;;4.24;66.68;102938.72;5056113;28;45647;-66
2023/01/24 08:13:07;;;;;;;;;53.00;46.75;;;;;4.18;66.45;102927.28;5057572;28;46121;-65
2023/01/24 08:15:32;;;;;;;;;54.50;41.75;;;;;4.25;66.40;102940.47;5054855;28;45974;-70
2023/01/24 08:17:57;;;;;;;;;45.50;36.75;;;;;4.24;65.98;102940.47;5058483;28;45390;-62
2023/01/24 08:20:23;;;;;;;;;52.50;38.25;;;;;4.28;65.84;102926.44;5055314;28;45462;-56
2023/01/24 08:22:53;;;;;;;;;53.50;44.25;;;;;4.33;66.11;102935.28;5053056;28;45765;-53
2023/01/24 08:25:19;;;;;;;;;58.75;47.50;;;;;4.30;66.15;102927.38;5047219;28;45674;-52
2023/01/24 08:27:44;;;;;;;;;52.00;41.00;;;;;4.29;65.83;102925.56;5060625;27;48399;-57
2023/01/24 08:30:10;;;;;;;;;69.00;46.50;;;;;4.24;66.38;102933.47;5053519;28;45663;-54
2023/01/24 08:32:36;;;;;;;;;53.50;41.75;;;;;4.14;66.02;102918.44;5056190;28;45485;-62
2023/01/24 08:35:02;;;;;;;;;55.75;45.25;;;;;4.14;66.29;102928.97;5059513;28;45351;-57
2023/01/24 08:37:27;;;;;;;;;58.25;46.50;;;;;4.14;66.87;102932.50;5055988;28;45509;-61
2023/01/24 08:39:52;;;;;;;;;67.00;48.25;;;;;4.06;66.47;102934.22;5054996;28;45474;-55
2023/01/24 08:42:18;;;;;;;;;41.25;41.25;;;;;4.02;66.48;102948.19;5057261;28;46355;-55
2023/01/24 08:44:43;;;;;;;;;58.25;47.00;;;;;4.07;66.37;102949.13;5072379;27;45518;-55
2023/01/24 08:47:08;;;;;;;;;64.50;42.75;;;;;4.06;66.25;102944.75;5056303;28;45448;-55
2023/01/24 08:49:34;;;;;;;;;59.25;44.25;;;;;4.11;66.49;102944.75;5056208;28;45766;-54
2023/01/24 08:51:59;;;;;;;;;56.25;43.00;;;;;4.13;66.83;102959.69;5056444;28;45364;-57
2023/01/24 08:54:31;;;;;;;;;62.00;48.00;;;;;4.11;66.64;102964.06;5054484;28;45524;-55
2023/01/24 08:56:57;;;;;;;;;52.00;46.25;;;;;4.19;66.67;102971.19;5071672;27;45451;-52
2023/01/24 08:59:22;;;;;;;;;61.50;48.75;;;;;4.24;66.65;102969.44;5057215;28;45534;-56
2023/01/24 09:01:48;;;;;;;;;59.00;47.50;;;;;4.17;66.85;102963.28;5055789;28;45440;-56
2023/01/24 09:04:13;;;;;;;;;66.25;49.50;;;;;3.99;66.85;102974.50;5072501;28;45437;-56
2023/01/24 09:06:39;;;;;;;;;72.75;56.75;;;;;3.88;67.45;102968.25;5057695;28;45501;-57
2023/01/24 09:09:05;;;;;;;;;72.25;53.75;;;;;3.87;67.85;102974.38;5057553;28;45498;-55
2023/01/24 09:11:31;;;;;;;;;62.00;46.75;;;;;3.85;68.05;102973.50;5055379;28;45490;-57
2023/01/24 09:13:57;;;;;;;;;60.00;46.50;;;;;3.85;67.73;102984.91;5047085;28;45430;-59
2023/01/24 09:16:23;;;;;;;;;70.00;57.50;;;;;3.92;67.85;102961.28;5045067;28;45406;-58
2023/01/24 09:18:51;;;;;;;;;70.50;50.50;;;;;3.92;67.69;102977.97;5056389;28;45511;-54
2023/01/24 09:21:17;;;;;;;;;64.25;48.50;;;;;4.00;67.32;102980.66;5055654;28;45426;-50
2023/01/24 09:23:43;;;;;;;;;51.00;43.25;;;;;4.04;67.08;102974.56;5055937;28;45547;-55
2023/01/24 09:26:08;;;;;;;;;66.25;48.00;;;;;4.12;67.12;102971.09;5056750;28;45413;-56
2023/01/24 09:28:34;;;;;;;;;57.50;46.75;;;;;4.20;67.03;102972.94;5057422;27;45452;-56
2023/01/24 09:30:59;;;;;;;;;53.25;43.50;;;;;4.15;66.18;102965.84;5057627;28;46485;-57
2023/01/24 09:33:25;;;;;;;;;55.75;45.00;;;;;4.17;66.49;102963.28;5057662;28;45288;-53
2023/01/24 09:35:59;;;;;;;;;51.25;43.50;;;;;4.12;67.31;102973.75;5055837;28;46895;-53
2023/01/24 09:38:27;;;;;;;;;57.25;45.75;;;;;4.18;67.36;102974.69;5055364;28;45503;-65
2023/01/24 09:41:01;;;;;;;;;61.00;44.00;;;;;4.21;67.48;102969.44;5036556;28;46018;-64
2023/01/24 09:43:44;;;;;;;;;73.75;50.75;;;;;4.08;66.85;102979.88;5044695;28;45375;-58
2023/01/24 09:46:32;;;;;;;;;48.75;40.00;;;;;4.13;67.22;102987.78;5056009;28;45428;-61
2023/01/24 09:49:35;;;;;;;;;53.75;46.00;;;;;4.12;66.71;102986.91;5055795;28;45405;-63
2023/01/24 09:52:06;;;;;;;;;44.25;38.00;;;;;4.12;66.95;102989.53;5056809;28;46862;-54
2023/01/24 09:54:45;;;;;;;;;71.00;47.50;;;;;3.97;66.82;102955.19;5060766;28;45441;-52
2023/01/24 09:57:26;;;;;;;;;59.00;47.50;;;;;4.20;67.47;102988.75;5053922;28;45526;-54
2023/01/24 09:59:57;;;;;;;;;52.50;40.25;;;;;4.13;66.47;102972.88;5051367;28;45482;-57
2023/01/24 10:02:27;;;;;;;;;57.00;48.00;;;;;4.33;66.99;102993.25;5063832;28;46110;-55
2023/01/24 10:04:52;;;;;;;;;52.75;45.50;;;;;4.28;66.38;102972.09;5069105;27;46665;-57
2023/01/24 10:07:24;;;;;;;;;53.75;43.50;;;;;4.34;66.83;102997.63;5068533;27;45563;-56
2023/01/24 10:10:30;;;;;;;;;58.75;47.75;;;;;4.42;66.40;103004.72;5041269;28;45226;-58
2023/01/24 10:13:17;;;;;;;;;58.00;43.75;;;;;4.46;66.11;102997.75;5042445;28;45473;-58
2023/01/24 10:15:57;;;;;;;;;69.25;44.75;;;;;4.37;66.83;103002.94;5055915;28;45346;-52
2023/01/24 10:18:28;;;;;;;;;49.25;38.00;;;;;4.43;66.43;103001.25;5056078;27;45319;-59
2023/01/24 10:21:07;;;;;;;;;67.50;49.25;;;;;4.46;66.31;103002.13;5066012;28;45488;-56
2023/01/24 10:23:39;;;;;;;;;70.00;51.25;;;;;4.35;66.88;102994.13;5062732;28;46218;-58
2023/01/24 10:26:16;;;;;;;;;55.75;47.00;;;;;4.26;67.10;102994.94;5036702;28;45452;-52
2023/01/24 10:28:55;;;;;;;;;61.75;46.00;;;;;4.23;67.68;102988.75;5050995;28;45374;-57
2023/01/24 10:31:36;;;;;;;;;57.50;48.25;;;;;4.38;66.95;102986.25;5050489;28;45484;-58
2023/01/24 10:34:18;;;;;;;;;43.75;36.50;;;;;4.56;67.07;102989.03;5035486;28;45377;-59
2023/01/24 10:37:05;;;;;;;;;43.50;28.25;;;;;4.63;66.83;102990.81;5050810;28;45460;-56
2023/01/24 10:39:31;;;;;;;;;59.50;46.25;;;;;4.73;66.11;102986.50;5050539;28;45498;-58
2023/01/24 10:41:56;;;;;;;;;55.00;42.50;;;;;4.77;66.16;102987.41;5080611;27;45647;-58
2023/01/24 10:44:22;;;;;;;;;44.75;33.25;;;;;4.85;65.36;102996.25;5051961;28;46585;-55
2023/01/24 10:47:06;;;;;;;;;47.75;37.75;;;;;4.73;65.84;102976.84;5055967;28;45472;-56
2023/01/24 10:49:36;;;;;;;;;52.00;46.00;;;;;4.70;66.33;102984.75;5060805;27;45407;-53
2023/01/24 10:52:16;;;;;;;;;44.75;39.50;;;;;4.57;66.21;102974.97;5055774;28;45457;-55
2023/01/24 10:54:53;;;;;;;;;66.00;46.50;;;;;4.48;66.20;102959.09;5055344;28;46136;-55
2023/01/24 10:57:36;;;;;;;;;59.75;43.50;;;;;4.70;66.00;102970.69;5035927;28;45181;-60
2023/01/24 11:00:14;;;;;;;;;58.00;43.00;;;;;4.83;66.26;102966.34;5065586;28;45448;-57
2023/01/24 11:02:40;;;;;;;;;48.50;36.00;;;;;4.80;65.76;102955.78;5067257;27;45659;-55
2023/01/24 11:05:13;;;;;;;;;41.50;37.75;;;;;4.93;65.76;102976.06;5052942;28;45481;-57
2023/01/24 11:07:54;;;;;;;;;52.25;42.00;;;;;4.77;66.05;102950.50;5055321;28;45347;-55
2023/01/24 11:10:22;;;;;;;;;58.50;45.00;;;;;4.91;65.22;102960.22;5053963;28;45497;-53
2023/01/24 11:12:57;;;;;;;;;57.00;46.25;;;;;4.96;65.96;102963.78;5051221;28;45688;-49
2023/01/24 11:15:28;;;;;;;;;50.25;46.75;;;;;4.97;65.68;102965.56;5053868;28;45906;-49
2023/01/24 11:17:57;;;;;;;;;50.00;42.75;;;;;4.98;65.46;102945.34;5052268;28;45538;-51
2023/01/24 11:20:32;;;;;;;;;53.00;43.25;;;;;5.04;65.08;102961.16;5055343;28;47764;-55
2023/01/24 11:23:16;;;;;;;;;52.25;40.25;;;;;4.96;65.79;102963.78;5045173;28;45905;-55
2023/01/24 11:25:56;;;;;;;;;56.00;44.50;;;;;4.97;66.51;102956.75;5052423;28;45373;-53
2023/01/24 11:28:27;;;;;;;;;55.25;45.00;;;;;4.99;65.72;102937.44;5054149;28;45512;-58
2023/01/24 11:30:54;;;;;;;;;50.75;44.75;;;;;5.16;65.44;102948.03;5043263;28;45261;-55
2023/01/24 11:33:47;;;;;;;;;46.75;38.50;;;;;5.24;65.62;102945.44;5056637;28;45428;-56
2023/01/24 11:36:29;;;;;;;;;54.75;40.75;;;;;5.36;65.16;102947.25;5056648;28;46460;-58
2023/01/24 11:39:00;;;;;;;;;56.50;42.25;;;;;5.37;64.87;102949.88;5063817;28;45465;-54
2023/01/24 11:41:32;;;;;;;;;57.25;42.00;;;;;5.43;64.45;102947.25;5057487;28;45434;-62
2023/01/24 11:44:03;;;;;;;;;46.25;41.75;;;;;5.33;64.75;102942.81;5054052;28;45320;-58
2023/01/24 11:47:08;;;;;;;;;57.50;41.50;;;;;5.22;64.85;102940.16;5051606;28;45460;-52
2023/01/24 11:49:57;;;;;;;;;45.00;38.00;;;;;5.32;64.46;102934.00;5059010;28;45566;-55
2023/01/24 11:52:40;;;;;;;;;47.25;41.50;;;;;5.42;64.54;102940.22;5071641;28;45271;-56
2023/01/24 11:55:35;;;;;;;;;40.50;38.00;;;;;5.35;65.07;102932.28;5071126;28;45590;-60
2023/01/24 11:58:30;;;;;;;;;54.00;44.50;;;;;5.27;65.21;102927.84;5058289;28;46223;-60
2023/01/24 12:01:05;;;;;;;;;46.75;39.00;;;;;5.30;65.12;102927.84;5058254;28;45476;-58